Huvudsida
METAR-TAF:

METAR-TAF

Flygplatser :

Atatürk International Airport

Istanbul Atatürk, Turkiet

latitud: 40-58N, longitud: 028-49E, höjd: 48 m

Aktuellt väderrapport

Denna rapport gjordes för 15 minuter sedan, klockan 13:20 UTC
Vind 2 kt varierande vindriktning
Temperatur 23°C
Fuktighet 53%
Tryck 1016 hPa
Sikt 10 km eller mer
Inga moln under 1 500 m eller inga cumulonimbus

METAR: LTBA 121320Z VRB02KT CAVOK 23/13 Q1016 NOSIG RMK RWY17L 17004KT RWY05 VRB01KT RWY23 VRB02KT

Tid: 16:35 (13:35 UTC)

Väderprognos

Denna rapport gjordes för 2 timmar och 55 minuter sedan, klockan 10:40 UTC
Prognos gäller från 12 kl. 12 UTC till 13 kl. 18 UTC
Vind 2 kt varierande vindriktning
Sikt 10 km eller mer
Inga moln under 1 500 m eller inga cumulonimbus
Blir
från 12 kl. 12 UTC till 12 kl. 15 UTC
Vind 12 kt från nordost
Blir
från 13 kl. 00 UTC till 13 kl. 03 UTC
Vind 9 kt från ost/sydost

TAF: LTBA 121040Z 1212/1318 VRB02KT CAVOK BECMG 1212/1215 05012KT BECMG 1300/1303 11009KT

Aktuella väderrapporter och prognoser från 4000 flygplatser (METAR- och TAF-rapporter).

De tillgängliga stationerna syns som gula och röda prickar på kartan.

För musen över prickarna för att se namnen på stationerna.

Klicka sedan för att få väderrapporter och prognoser.

För att ändra kartan: Klicka på de gröna knapparna med ett svart kors på för att zooma in; den gröna knappen med ett streck på för att zooma ut; eller på de gröna pilarna för angränsande kartor.


METAR-TAF: